sensor_id;sensor_type;location;lat;lon;timestamp;temperature;humidity
69543;SHT31;56762;49.494;11.768;2022-07-06T00:00:36;18.07;53.03
69543;SHT31;56762;49.494;11.768;2022-07-06T00:03:04;18.04;52.67
69543;SHT31;56762;49.494;11.768;2022-07-06T00:05:32;18.04;52.73
69543;SHT31;56762;49.494;11.768;2022-07-06T00:08:03;18.04;53.14
69543;SHT31;56762;49.494;11.768;2022-07-06T00:10:30;18.02;53.63
69543;SHT31;56762;49.494;11.768;2022-07-06T00:12:58;18.00;53.49
69543;SHT31;56762;49.494;11.768;2022-07-06T00:15:26;17.98;53.91
69543;SHT31;56762;49.494;11.768;2022-07-06T00:17:55;17.94;53.20
69543;SHT31;56762;49.494;11.768;2022-07-06T00:20:23;17.87;53.58
69543;SHT31;56762;49.494;11.768;2022-07-06T00:22:51;17.87;53.41
69543;SHT31;56762;49.494;11.768;2022-07-06T00:25:19;17.84;53.47
69543;SHT31;56762;49.494;11.768;2022-07-06T00:27:46;17.81;53.62
69543;SHT31;56762;49.494;11.768;2022-07-06T00:30:16;17.76;54.09
69543;SHT31;56762;49.494;11.768;2022-07-06T00:32:44;17.74;53.93
69543;SHT31;56762;49.494;11.768;2022-07-06T00:35:13;17.74;54.54
69543;SHT31;56762;49.494;11.768;2022-07-06T00:37:41;17.71;55.00
69543;SHT31;56762;49.494;11.768;2022-07-06T00:40:09;17.67;54.60
69543;SHT31;56762;49.494;11.768;2022-07-06T00:42:40;17.63;54.82
69543;SHT31;56762;49.494;11.768;2022-07-06T00:45:10;17.62;54.68
69543;SHT31;56762;49.494;11.768;2022-07-06T00:47:38;17.56;54.87
69543;SHT31;56762;49.494;11.768;2022-07-06T00:50:07;17.53;55.15
69543;SHT31;56762;49.494;11.768;2022-07-06T00:52:45;17.47;55.36
69543;SHT31;56762;49.494;11.768;2022-07-06T00:55:13;17.47;55.88
69543;SHT31;56762;49.494;11.768;2022-07-06T00:57:42;17.50;56.24
69543;SHT31;56762;49.494;11.768;2022-07-06T01:00:12;17.54;55.83
69543;SHT31;56762;49.494;11.768;2022-07-06T01:02:40;17.53;56.19
69543;SHT31;56762;49.494;11.768;2022-07-06T01:05:10;17.47;57.14
69543;SHT31;56762;49.494;11.768;2022-07-06T01:07:39;17.38;56.71
69543;SHT31;56762;49.494;11.768;2022-07-06T01:10:10;17.29;56.57
69543;SHT31;56762;49.494;11.768;2022-07-06T01:12:39;17.23;56.55
69543;SHT31;56762;49.494;11.768;2022-07-06T01:15:10;17.20;56.48
69543;SHT31;56762;49.494;11.768;2022-07-06T01:17:39;17.16;57.08
69543;SHT31;56762;49.494;11.768;2022-07-06T01:20:10;17.14;57.62
69543;SHT31;56762;49.494;11.768;2022-07-06T01:22:38;17.07;57.94
69543;SHT31;56762;49.494;11.768;2022-07-06T01:25:07;17.02;57.78
69543;SHT31;56762;49.494;11.768;2022-07-06T01:27:36;16.96;58.45
69543;SHT31;56762;49.494;11.768;2022-07-06T01:30:07;16.92;58.39
69543;SHT31;56762;49.494;11.768;2022-07-06T01:32:35;16.87;58.68
69543;SHT31;56762;49.494;11.768;2022-07-06T01:35:07;16.82;58.91
69543;SHT31;56762;49.494;11.768;2022-07-06T01:37:37;16.77;59.22
69543;SHT31;56762;49.494;11.768;2022-07-06T01:40:07;16.71;59.13
69543;SHT31;56762;49.494;11.768;2022-07-06T01:42:35;16.67;59.37
69543;SHT31;56762;49.494;11.768;2022-07-06T01:45:04;16.63;59.50
69543;SHT31;56762;49.494;11.768;2022-07-06T01:47:33;16.60;59.62
69543;SHT31;56762;49.494;11.768;2022-07-06T01:50:03;16.54;60.12
69543;SHT31;56762;49.494;11.768;2022-07-06T01:52:31;16.51;60.17
69543;SHT31;56762;49.494;11.768;2022-07-06T01:55:01;16.48;60.07
69543;SHT31;56762;49.494;11.768;2022-07-06T01:57:29;16.47;60.24
69543;SHT31;56762;49.494;11.768;2022-07-06T01:59:56;16.50;60.04
69543;SHT31;56762;49.494;11.768;2022-07-06T02:02:24;16.46;60.25
69543;SHT31;56762;49.494;11.768;2022-07-06T02:04:52;16.46;60.17
69543;SHT31;56762;49.494;11.768;2022-07-06T02:07:22;16.46;60.09
69543;SHT31;56762;49.494;11.768;2022-07-06T02:09:49;16.44;59.99
69543;SHT31;56762;49.494;11.768;2022-07-06T02:12:18;16.50;59.61
69543;SHT31;56762;49.494;11.768;2022-07-06T02:14:47;16.47;60.04
69543;SHT31;56762;49.494;11.768;2022-07-06T02:17:15;16.48;60.19
69543;SHT31;56762;49.494;11.768;2022-07-06T02:19:43;16.48;60.17
69543;SHT31;56762;49.494;11.768;2022-07-06T02:22:10;16.43;60.57
69543;SHT31;56762;49.494;11.768;2022-07-06T02:24:38;16.39;60.67
69543;SHT31;56762;49.494;11.768;2022-07-06T02:27:06;16.36;60.61
69543;SHT31;56762;49.494;11.768;2022-07-06T02:29:35;16.33;61.00
69543;SHT31;56762;49.494;11.768;2022-07-06T02:32:03;16.30;61.02
69543;SHT31;56762;49.494;11.768;2022-07-06T02:34:31;16.27;60.87
69543;SHT31;56762;49.494;11.768;2022-07-06T02:36:59;16.26;61.00
69543;SHT31;56762;49.494;11.768;2022-07-06T02:39:28;16.26;60.78
69543;SHT31;56762;49.494;11.768;2022-07-06T02:41:55;16.29;60.89
69543;SHT31;56762;49.494;11.768;2022-07-06T02:44:23;16.26;60.72
69543;SHT31;56762;49.494;11.768;2022-07-06T02:46:52;16.21;60.94
69543;SHT31;56762;49.494;11.768;2022-07-06T02:49:20;16.20;60.94
69543;SHT31;56762;49.494;11.768;2022-07-06T02:51:48;16.27;60.38
69543;SHT31;56762;49.494;11.768;2022-07-06T02:54:16;16.19;60.40
69543;SHT31;56762;49.494;11.768;2022-07-06T02:56:44;16.21;60.72
69543;SHT31;56762;49.494;11.768;2022-07-06T02:59:17;16.17;60.60
69543;SHT31;56762;49.494;11.768;2022-07-06T03:01:45;16.19;60.98
69543;SHT31;56762;49.494;11.768;2022-07-06T03:04:14;16.13;61.27
69543;SHT31;56762;49.494;11.768;2022-07-06T03:06:42;16.13;61.51
69543;SHT31;56762;49.494;11.768;2022-07-06T03:09:09;16.12;61.89
69543;SHT31;56762;49.494;11.768;2022-07-06T03:11:37;16.08;62.02
69543;SHT31;56762;49.494;11.768;2022-07-06T03:14:06;16.03;62.03
69543;SHT31;56762;49.494;11.768;2022-07-06T03:16:34;15.95;62.25
69543;SHT31;56762;49.494;11.768;2022-07-06T03:19:02;15.92;62.21
69543;SHT31;56762;49.494;11.768;2022-07-06T03:21:31;15.86;62.61
69543;SHT31;56762;49.494;11.768;2022-07-06T03:23:59;15.83;63.01
69543;SHT31;56762;49.494;11.768;2022-07-06T03:26:27;15.79;63.00
69543;SHT31;56762;49.494;11.768;2022-07-06T03:28:55;15.77;63.09
69543;SHT31;56762;49.494;11.768;2022-07-06T03:31:22;15.70;63.37
69543;SHT31;56762;49.494;11.768;2022-07-06T03:33:51;15.68;63.43
69543;SHT31;56762;49.494;11.768;2022-07-06T03:36:18;15.65;64.14
69543;SHT31;56762;49.494;11.768;2022-07-06T03:38:48;15.62;64.38
69543;SHT31;56762;49.494;11.768;2022-07-06T03:41:15;15.59;64.30
69543;SHT31;56762;49.494;11.768;2022-07-06T03:43:43;15.55;64.60
69543;SHT31;56762;49.494;11.768;2022-07-06T03:46:11;15.52;64.72
69543;SHT31;56762;49.494;11.768;2022-07-06T03:48:39;15.54;64.87
69543;SHT31;56762;49.494;11.768;2022-07-06T03:51:06;15.54;65.05
69543;SHT31;56762;49.494;11.768;2022-07-06T03:53:34;15.55;65.18
69543;SHT31;56762;49.494;11.768;2022-07-06T03:56:04;15.52;64.56
69543;SHT31;56762;49.494;11.768;2022-07-06T03:58:49;15.49;64.50
69543;SHT31;56762;49.494;11.768;2022-07-06T04:01:17;15.49;64.27
69543;SHT31;56762;49.494;11.768;2022-07-06T04:03:45;15.54;64.30
69543;SHT31;56762;49.494;11.768;2022-07-06T04:06:13;15.63;63.93
69543;SHT31;56762;49.494;11.768;2022-07-06T04:08:41;15.70;63.95
69543;SHT31;56762;49.494;11.768;2022-07-06T04:11:10;15.81;63.44
69543;SHT31;56762;49.494;11.768;2022-07-06T04:13:38;15.88;63.14
69543;SHT31;56762;49.494;11.768;2022-07-06T04:16:06;15.96;62.97
69543;SHT31;56762;49.494;11.768;2022-07-06T04:18:34;16.03;62.70
69543;SHT31;56762;49.494;11.768;2022-07-06T04:21:02;16.10;62.48
69543;SHT31;56762;49.494;11.768;2022-07-06T04:23:30;16.20;62.25
69543;SHT31;56762;49.494;11.768;2022-07-06T04:25:58;16.33;62.37
69543;SHT31;56762;49.494;11.768;2022-07-06T04:28:28;16.47;61.75
69543;SHT31;56762;49.494;11.768;2022-07-06T04:30:56;16.58;61.13
69543;SHT31;56762;49.494;11.768;2022-07-06T04:33:24;16.65;61.17
69543;SHT31;56762;49.494;11.768;2022-07-06T04:35:51;16.72;60.68
69543;SHT31;56762;49.494;11.768;2022-07-06T04:38:19;16.79;60.52
69543;SHT31;56762;49.494;11.768;2022-07-06T04:40:47;16.85;60.42
69543;SHT31;56762;49.494;11.768;2022-07-06T04:43:15;16.91;60.41
69543;SHT31;56762;49.494;11.768;2022-07-06T04:45:44;16.87;60.21
69543;SHT31;56762;49.494;11.768;2022-07-06T04:48:12;16.91;60.28
69543;SHT31;56762;49.494;11.768;2022-07-06T04:50:40;16.99;60.25
69543;SHT31;56762;49.494;11.768;2022-07-06T04:53:08;17.11;59.92
69543;SHT31;56762;49.494;11.768;2022-07-06T04:55:36;17.20;59.88
69543;SHT31;56762;49.494;11.768;2022-07-06T04:58:04;17.30;59.76
69543;SHT31;56762;49.494;11.768;2022-07-06T05:00:32;17.38;59.25
69543;SHT31;56762;49.494;11.768;2022-07-06T05:03:01;17.32;59.42
69543;SHT31;56762;49.494;11.768;2022-07-06T05:05:29;17.20;59.65
69543;SHT31;56762;49.494;11.768;2022-07-06T05:07:57;17.19;59.87
69543;SHT31;56762;49.494;11.768;2022-07-06T05:10:24;17.09;59.74
69543;SHT31;56762;49.494;11.768;2022-07-06T05:12:53;17.11;60.36
69543;SHT31;56762;49.494;11.768;2022-07-06T05:15:22;17.20;60.02
69543;SHT31;56762;49.494;11.768;2022-07-06T05:17:52;17.32;59.30
69543;SHT31;56762;49.494;11.768;2022-07-06T05:20:22;17.40;59.32
69543;SHT31;56762;49.494;11.768;2022-07-06T05:22:50;17.56;58.87
69543;SHT31;56762;49.494;11.768;2022-07-06T05:25:17;17.70;58.34
69543;SHT31;56762;49.494;11.768;2022-07-06T05:27:45;17.79;57.76
69543;SHT31;56762;49.494;11.768;2022-07-06T05:30:13;17.93;57.70
69543;SHT31;56762;49.494;11.768;2022-07-06T05:32:42;18.07;57.05
69543;SHT31;56762;49.494;11.768;2022-07-06T05:35:10;18.21;56.78
69543;SHT31;56762;49.494;11.768;2022-07-06T05:41:43;18.28;56.00
69543;SHT31;56762;49.494;11.768;2022-07-06T05:44:11;18.27;56.60
69543;SHT31;56762;49.494;11.768;2022-07-06T05:46:38;18.34;56.67
69543;SHT31;56762;49.494;11.768;2022-07-06T05:49:06;18.39;56.21
69543;SHT31;56762;49.494;11.768;2022-07-06T05:51:52;18.48;55.96
69543;SHT31;56762;49.494;11.768;2022-07-06T05:54:22;18.55;55.56
69543;SHT31;56762;49.494;11.768;2022-07-06T05:56:51;18.62;55.31
69543;SHT31;56762;49.494;11.768;2022-07-06T05:59:19;18.73;55.16
69543;SHT31;56762;49.494;11.768;2022-07-06T06:01:46;18.75;54.93
69543;SHT31;56762;49.494;11.768;2022-07-06T06:04:14;18.82;55.23
69543;SHT31;56762;49.494;11.768;2022-07-06T06:06:42;18.96;54.65
69543;SHT31;56762;49.494;11.768;2022-07-06T06:09:10;19.10;53.98
69543;SHT31;56762;49.494;11.768;2022-07-06T06:11:37;19.23;53.88
69543;SHT31;56762;49.494;11.768;2022-07-06T06:14:08;19.30;54.33
69543;SHT31;56762;49.494;11.768;2022-07-06T06:16:35;19.32;54.08
69543;SHT31;56762;49.494;11.768;2022-07-06T06:19:03;19.44;53.78
69543;SHT31;56762;49.494;11.768;2022-07-06T06:21:31;19.44;53.56
69543;SHT31;56762;49.494;11.768;2022-07-06T06:23:59;19.40;55.19
69543;SHT31;56762;49.494;11.768;2022-07-06T06:26:27;19.30;53.38
69543;SHT31;56762;49.494;11.768;2022-07-06T06:28:55;19.23;53.74
69543;SHT31;56762;49.494;11.768;2022-07-06T06:31:24;19.32;53.27
69543;SHT31;56762;49.494;11.768;2022-07-06T06:37:04;19.37;52.55
69543;SHT31;56762;49.494;11.768;2022-07-06T06:39:32;19.48;53.11
69543;SHT31;56762;49.494;11.768;2022-07-06T06:42:00;19.62;52.65
69543;SHT31;56762;49.494;11.768;2022-07-06T06:44:27;19.67;52.36
69543;SHT31;56762;49.494;11.768;2022-07-06T06:46:56;19.75;51.22
69543;SHT31;56762;49.494;11.768;2022-07-06T06:49:24;19.64;51.79
69543;SHT31;56762;49.494;11.768;2022-07-06T06:51:52;19.72;51.19
69543;SHT31;56762;49.494;11.768;2022-07-06T06:54:39;19.78;50.99
69543;SHT31;56762;49.494;11.768;2022-07-06T06:57:07;19.91;50.45
69543;SHT31;56762;49.494;11.768;2022-07-06T06:59:35;19.91;50.75
69543;SHT31;56762;49.494;11.768;2022-07-06T07:02:04;19.96;50.90
69543;SHT31;56762;49.494;11.768;2022-07-06T07:04:32;20.13;52.14
69543;SHT31;56762;49.494;11.768;2022-07-06T07:07:00;20.36;51.13
69543;SHT31;56762;49.494;11.768;2022-07-06T07:09:28;20.50;50.53
69543;SHT31;56762;49.494;11.768;2022-07-06T07:11:55;20.69;46.63
69543;SHT31;56762;49.494;11.768;2022-07-06T07:14:24;20.81;46.55
69543;SHT31;56762;49.494;11.768;2022-07-06T07:16:51;20.85;45.86
69543;SHT31;56762;49.494;11.768;2022-07-06T07:19:20;20.90;45.94
69543;SHT31;56762;49.494;11.768;2022-07-06T07:21:48;20.83;45.80
69543;SHT31;56762;49.494;11.768;2022-07-06T07:24:16;20.83;45.78
69543;SHT31;56762;49.494;11.768;2022-07-06T07:26:44;20.87;45.45
69543;SHT31;56762;49.494;11.768;2022-07-06T07:29:12;20.77;47.26
69543;SHT31;56762;49.494;11.768;2022-07-06T07:31:40;20.74;49.19
69543;SHT31;56762;49.494;11.768;2022-07-06T07:34:07;20.84;46.20
69543;SHT31;56762;49.494;11.768;2022-07-06T07:36:36;20.70;47.40
69543;SHT31;56762;49.494;11.768;2022-07-06T07:39:04;20.76;45.48
69543;SHT31;56762;49.494;11.768;2022-07-06T07:41:32;20.69;46.20
69543;SHT31;56762;49.494;11.768;2022-07-06T07:44:00;20.70;45.25
69543;SHT31;56762;49.494;11.768;2022-07-06T07:46:28;20.69;45.13
69543;SHT31;56762;49.494;11.768;2022-07-06T07:48:56;20.69;45.73
69543;SHT31;56762;49.494;11.768;2022-07-06T07:51:23;20.63;45.59
69543;SHT31;56762;49.494;11.768;2022-07-06T07:53:52;20.64;45.33
69543;SHT31;56762;49.494;11.768;2022-07-06T07:56:20;20.74;45.45
69543;SHT31;56762;49.494;11.768;2022-07-06T07:58:48;20.77;45.94
69543;SHT31;56762;49.494;11.768;2022-07-06T08:01:16;20.74;45.54
69543;SHT31;56762;49.494;11.768;2022-07-06T08:03:44;20.80;45.13
69543;SHT31;56762;49.494;11.768;2022-07-06T08:06:11;20.71;46.33
69543;SHT31;56762;49.494;11.768;2022-07-06T08:08:39;20.70;45.12
69543;SHT31;56762;49.494;11.768;2022-07-06T08:11:08;20.73;43.56
69543;SHT31;56762;49.494;11.768;2022-07-06T08:13:45;20.61;44.42
69543;SHT31;56762;49.494;11.768;2022-07-06T08:16:13;20.69;44.69
69543;SHT31;56762;49.494;11.768;2022-07-06T08:18:41;20.63;44.28
69543;SHT31;56762;49.494;11.768;2022-07-06T08:21:09;20.63;44.39
69543;SHT31;56762;49.494;11.768;2022-07-06T08:23:54;20.51;44.80
69543;SHT31;56762;49.494;11.768;2022-07-06T08:26:23;20.47;45.21
69543;SHT31;56762;49.494;11.768;2022-07-06T08:28:51;20.49;45.96
69543;SHT31;56762;49.494;11.768;2022-07-06T08:31:19;20.66;44.15
69543;SHT31;56762;49.494;11.768;2022-07-06T08:34:07;20.71;44.39
69543;SHT31;56762;49.494;11.768;2022-07-06T08:36:36;20.91;43.76
69543;SHT31;56762;49.494;11.768;2022-07-06T08:39:04;20.83;44.96
69543;SHT31;56762;49.494;11.768;2022-07-06T08:41:34;20.85;43.93
69543;SHT31;56762;49.494;11.768;2022-07-06T08:44:04;20.87;43.85
69543;SHT31;56762;49.494;11.768;2022-07-06T08:46:34;20.87;43.49
69543;SHT31;56762;49.494;11.768;2022-07-06T08:49:02;20.92;43.75
69543;SHT31;56762;49.494;11.768;2022-07-06T08:51:30;21.11;42.91
69543;SHT31;56762;49.494;11.768;2022-07-06T08:53:58;21.25;42.54
69543;SHT31;56762;49.494;11.768;2022-07-06T08:56:27;21.24;43.06
69543;SHT31;56762;49.494;11.768;2022-07-06T08:58:57;21.41;42.74
69543;SHT31;56762;49.494;11.768;2022-07-06T09:01:25;21.63;41.77
69543;SHT31;56762;49.494;11.768;2022-07-06T09:03:54;21.60;41.47
69543;SHT31;56762;49.494;11.768;2022-07-06T09:06:33;21.49;41.76
69543;SHT31;56762;49.494;11.768;2022-07-06T09:09:05;21.49;41.10
69543;SHT31;56762;49.494;11.768;2022-07-06T09:11:33;21.49;41.55
69543;SHT31;56762;49.494;11.768;2022-07-06T09:14:03;21.52;40.93
69543;SHT31;56762;49.494;11.768;2022-07-06T09:16:31;21.60;40.86
69543;SHT31;56762;49.494;11.768;2022-07-06T09:19:05;21.79;41.24
69543;SHT31;56762;49.494;11.768;2022-07-06T09:21:33;21.76;42.85
69543;SHT31;56762;49.494;11.768;2022-07-06T09:24:07;21.76;41.62
69543;SHT31;56762;49.494;11.768;2022-07-06T09:26:35;21.79;42.11
69543;SHT31;56762;49.494;11.768;2022-07-06T09:29:04;21.82;42.40
69543;SHT31;56762;49.494;11.768;2022-07-06T09:31:32;21.86;42.41
69543;SHT31;56762;49.494;11.768;2022-07-06T09:34:03;21.88;42.51
69543;SHT31;56762;49.494;11.768;2022-07-06T09:36:37;21.94;41.85
69543;SHT31;56762;49.494;11.768;2022-07-06T09:39:20;21.93;40.13
69543;SHT31;56762;49.494;11.768;2022-07-06T09:41:49;21.88;40.75
69543;SHT31;56762;49.494;11.768;2022-07-06T09:44:23;21.78;42.05
69543;SHT31;56762;49.494;11.768;2022-07-06T09:46:52;21.79;42.25
69543;SHT31;56762;49.494;11.768;2022-07-06T09:49:20;21.86;41.92
69543;SHT31;56762;49.494;11.768;2022-07-06T09:51:50;21.89;41.27
69543;SHT31;56762;49.494;11.768;2022-07-06T09:54:19;21.96;39.33
69543;SHT31;56762;49.494;11.768;2022-07-06T09:56:48;22.09;39.18
69543;SHT31;56762;49.494;11.768;2022-07-06T09:59:18;21.99;40.37
69543;SHT31;56762;49.494;11.768;2022-07-06T10:01:51;21.93;40.16
69543;SHT31;56762;49.494;11.768;2022-07-06T10:04:19;21.97;40.96
69543;SHT31;56762;49.494;11.768;2022-07-06T10:06:47;22.04;40.71
69543;SHT31;56762;49.494;11.768;2022-07-06T10:09:18;22.10;41.17
69543;SHT31;56762;49.494;11.768;2022-07-06T10:11:48;22.16;40.91
69543;SHT31;56762;49.494;11.768;2022-07-06T10:14:18;22.41;39.39
69543;SHT31;56762;49.494;11.768;2022-07-06T10:16:49;22.43;39.27
69543;SHT31;56762;49.494;11.768;2022-07-06T10:19:20;22.41;38.83
69543;SHT31;56762;49.494;11.768;2022-07-06T10:21:48;22.40;39.39
69543;SHT31;56762;49.494;11.768;2022-07-06T10:24:17;22.40;40.25
69543;SHT31;56762;49.494;11.768;2022-07-06T10:26:46;22.48;40.33
69543;SHT31;56762;49.494;11.768;2022-07-06T10:29:14;22.52;40.44
69543;SHT31;56762;49.494;11.768;2022-07-06T10:31:44;22.58;37.76
69543;SHT31;56762;49.494;11.768;2022-07-06T10:34:18;22.64;38.55
69543;SHT31;56762;49.494;11.768;2022-07-06T10:36:50;22.51;40.11
69543;SHT31;56762;49.494;11.768;2022-07-06T10:39:32;22.44;39.19
69543;SHT31;56762;49.494;11.768;2022-07-06T10:42:41;22.33;38.61
69543;SHT31;56762;49.494;11.768;2022-07-06T10:45:11;22.24;39.45
69543;SHT31;56762;49.494;11.768;2022-07-06T10:47:40;22.17;39.36
69543;SHT31;56762;49.494;11.768;2022-07-06T10:50:10;22.14;39.49
69543;SHT31;56762;49.494;11.768;2022-07-06T10:52:50;22.14;39.52
69543;SHT31;56762;49.494;11.768;2022-07-06T10:55:35;21.96;39.46
69543;SHT31;56762;49.494;11.768;2022-07-06T10:58:03;21.89;39.65
69543;SHT31;56762;49.494;11.768;2022-07-06T11:00:50;21.85;39.72
69543;SHT31;56762;49.494;11.768;2022-07-06T11:03:38;21.89;39.27
69543;SHT31;56762;49.494;11.768;2022-07-06T11:06:09;21.90;38.40
69543;SHT31;56762;49.494;11.768;2022-07-06T11:08:52;21.97;37.85
69543;SHT31;56762;49.494;11.768;2022-07-06T11:11:23;22.01;37.81
69543;SHT31;56762;49.494;11.768;2022-07-06T11:13:53;22.04;37.08
69543;SHT31;56762;49.494;11.768;2022-07-06T11:16:23;21.94;37.90
69543;SHT31;56762;49.494;11.768;2022-07-06T11:19:05;21.76;38.76
69543;SHT31;56762;49.494;11.768;2022-07-06T11:21:43;21.72;38.68
69543;SHT31;56762;49.494;11.768;2022-07-06T11:24:13;21.72;39.22
69543;SHT31;56762;49.494;11.768;2022-07-06T11:26:43;21.82;39.23
69543;SHT31;56762;49.494;11.768;2022-07-06T11:29:13;21.85;40.25
69543;SHT31;56762;49.494;11.768;2022-07-06T11:31:42;21.88;39.28
69543;SHT31;56762;49.494;11.768;2022-07-06T11:34:12;21.94;38.58
69543;SHT31;56762;49.494;11.768;2022-07-06T11:36:41;21.82;39.33
69543;SHT31;56762;49.494;11.768;2022-07-06T11:39:12;21.86;38.04
69543;SHT31;56762;49.494;11.768;2022-07-06T11:41:40;21.85;38.63
69543;SHT31;56762;49.494;11.768;2022-07-06T11:44:16;21.96;37.09
69543;SHT31;56762;49.494;11.768;2022-07-06T11:46:43;22.00;39.97
69543;SHT31;56762;49.494;11.768;2022-07-06T11:49:11;22.10;37.38
69543;SHT31;56762;49.494;11.768;2022-07-06T11:51:42;22.28;37.80
69543;SHT31;56762;49.494;11.768;2022-07-06T11:54:11;22.28;37.19
69543;SHT31;56762;49.494;11.768;2022-07-06T11:56:45;22.24;37.68
69543;SHT31;56762;49.494;11.768;2022-07-06T11:59:14;22.14;37.83
69543;SHT31;56762;49.494;11.768;2022-07-06T12:01:42;22.06;37.98
69543;SHT31;56762;49.494;11.768;2022-07-06T12:04:11;22.09;38.23
69543;SHT31;56762;49.494;11.768;2022-07-06T12:06:39;22.22;36.31
69543;SHT31;56762;49.494;11.768;2022-07-06T12:09:11;22.36;37.40
69543;SHT31;56762;49.494;11.768;2022-07-06T12:11:38;22.36;36.47
69543;SHT31;56762;49.494;11.768;2022-07-06T12:14:15;22.31;36.10
69543;SHT31;56762;49.494;11.768;2022-07-06T12:16:43;22.16;36.69
69543;SHT31;56762;49.494;11.768;2022-07-06T12:19:11;22.04;37.30
69543;SHT31;56762;49.494;11.768;2022-07-06T12:21:44;22.13;36.74
69543;SHT31;56762;49.494;11.768;2022-07-06T12:24:19;22.17;37.28
69543;SHT31;56762;49.494;11.768;2022-07-06T12:26:47;22.25;38.80
69543;SHT31;56762;49.494;11.768;2022-07-06T12:29:16;22.43;37.74
69543;SHT31;56762;49.494;11.768;2022-07-06T12:31:48;22.67;37.26
69543;SHT31;56762;49.494;11.768;2022-07-06T12:34:17;22.68;36.34
69543;SHT31;56762;49.494;11.768;2022-07-06T12:36:46;22.62;36.40
69543;SHT31;56762;49.494;11.768;2022-07-06T12:39:21;22.54;37.16
69543;SHT31;56762;49.494;11.768;2022-07-06T12:41:50;22.41;37.76
69543;SHT31;56762;49.494;11.768;2022-07-06T12:44:20;22.33;37.39
69543;SHT31;56762;49.494;11.768;2022-07-06T12:46:48;22.17;38.36
69543;SHT31;56762;49.494;11.768;2022-07-06T12:49:18;22.20;37.77
69543;SHT31;56762;49.494;11.768;2022-07-06T12:55:34;22.25;36.18
69543;SHT31;56762;49.494;11.768;2022-07-06T12:58:02;22.37;36.04
69543;SHT31;56762;49.494;11.768;2022-07-06T13:00:43;22.43;36.53
69543;SHT31;56762;49.494;11.768;2022-07-06T13:03:11;22.50;35.34
69543;SHT31;56762;49.494;11.768;2022-07-06T13:05:39;22.50;35.29
69543;SHT31;56762;49.494;11.768;2022-07-06T13:08:07;22.55;36.33
69543;SHT31;56762;49.494;11.768;2022-07-06T13:10:39;22.62;35.95
69543;SHT31;56762;49.494;11.768;2022-07-06T13:13:09;22.55;36.58
69543;SHT31;56762;49.494;11.768;2022-07-06T13:15:40;22.41;37.92
69543;SHT31;56762;49.494;11.768;2022-07-06T13:18:08;22.36;38.11
69543;SHT31;56762;49.494;11.768;2022-07-06T13:20:39;22.27;38.70
69543;SHT31;56762;49.494;11.768;2022-07-06T13:23:07;22.31;37.92
69543;SHT31;56762;49.494;11.768;2022-07-06T13:25:37;22.37;37.67
69543;SHT31;56762;49.494;11.768;2022-07-06T13:28:04;22.47;38.01
69543;SHT31;56762;49.494;11.768;2022-07-06T13:30:32;22.55;38.10
69543;SHT31;56762;49.494;11.768;2022-07-06T13:33:00;22.64;37.00
69543;SHT31;56762;49.494;11.768;2022-07-06T13:35:27;22.76;37.36
69543;SHT31;56762;49.494;11.768;2022-07-06T13:37:55;22.72;37.30
69543;SHT31;56762;49.494;11.768;2022-07-06T13:40:23;22.85;36.40
69543;SHT31;56762;49.494;11.768;2022-07-06T13:42:52;22.88;37.17
69543;SHT31;56762;49.494;11.768;2022-07-06T13:45:21;23.00;36.07
69543;SHT31;56762;49.494;11.768;2022-07-06T13:47:48;23.06;35.35
69543;SHT31;56762;49.494;11.768;2022-07-06T13:50:16;23.09;34.69
69543;SHT31;56762;49.494;11.768;2022-07-06T13:52:44;22.91;35.65
69543;SHT31;56762;49.494;11.768;2022-07-06T13:55:12;22.85;35.25
69543;SHT31;56762;49.494;11.768;2022-07-06T13:57:39;22.78;35.12
69543;SHT31;56762;49.494;11.768;2022-07-06T14:00:11;22.84;35.95
69543;SHT31;56762;49.494;11.768;2022-07-06T14:02:40;22.89;37.06
69543;SHT31;56762;49.494;11.768;2022-07-06T14:05:09;22.95;37.38
69543;SHT31;56762;49.494;11.768;2022-07-06T14:07:36;22.92;37.12
69543;SHT31;56762;49.494;11.768;2022-07-06T14:10:05;22.81;37.18
69543;SHT31;56762;49.494;11.768;2022-07-06T14:12:33;22.73;37.86
69543;SHT31;56762;49.494;11.768;2022-07-06T14:15:00;22.67;37.70
69543;SHT31;56762;49.494;11.768;2022-07-06T14:17:29;22.88;37.18
69543;SHT31;56762;49.494;11.768;2022-07-06T14:19:57;22.75;38.11
69543;SHT31;56762;49.494;11.768;2022-07-06T14:22:25;22.67;37.62
69543;SHT31;56762;49.494;11.768;2022-07-06T14:24:53;22.65;36.30
69543;SHT31;56762;49.494;11.768;2022-07-06T14:27:21;22.71;35.19
69543;SHT31;56762;49.494;11.768;2022-07-06T14:29:50;22.57;35.94
69543;SHT31;56762;49.494;11.768;2022-07-06T14:32:19;22.58;36.25
69543;SHT31;56762;49.494;11.768;2022-07-06T14:34:49;22.67;35.06
69543;SHT31;56762;49.494;11.768;2022-07-06T14:37:17;22.71;36.09
69543;SHT31;56762;49.494;11.768;2022-07-06T14:39:46;22.73;36.28
69543;SHT31;56762;49.494;11.768;2022-07-06T14:42:15;22.81;35.34
69543;SHT31;56762;49.494;11.768;2022-07-06T14:44:42;22.75;35.37
69543;SHT31;56762;49.494;11.768;2022-07-06T14:47:10;22.84;34.24
69543;SHT31;56762;49.494;11.768;2022-07-06T14:49:38;22.89;34.38
69543;SHT31;56762;49.494;11.768;2022-07-06T14:52:07;22.96;33.97
69543;SHT31;56762;49.494;11.768;2022-07-06T14:54:36;23.08;34.04
69543;SHT31;56762;49.494;11.768;2022-07-06T14:57:04;23.10;34.39
69543;SHT31;56762;49.494;11.768;2022-07-06T14:59:35;23.23;33.86
69543;SHT31;56762;49.494;11.768;2022-07-06T15:02:03;23.22;34.11
69543;SHT31;56762;49.494;11.768;2022-07-06T15:04:31;23.23;34.10
69543;SHT31;56762;49.494;11.768;2022-07-06T15:06:59;23.23;33.81
69543;SHT31;56762;49.494;11.768;2022-07-06T15:09:29;23.12;34.84
69543;SHT31;56762;49.494;11.768;2022-07-06T15:11:57;23.03;34.94
69543;SHT31;56762;49.494;11.768;2022-07-06T15:14:25;23.18;33.98
69543;SHT31;56762;49.494;11.768;2022-07-06T15:16:52;23.12;33.96
69543;SHT31;56762;49.494;11.768;2022-07-06T15:19:20;23.10;33.70
69543;SHT31;56762;49.494;11.768;2022-07-06T15:21:48;23.03;35.73
69543;SHT31;56762;49.494;11.768;2022-07-06T15:24:16;22.91;34.66
69543;SHT31;56762;49.494;11.768;2022-07-06T15:26:46;23.03;33.69
69543;SHT31;56762;49.494;11.768;2022-07-06T15:29:14;22.99;33.56
69543;SHT31;56762;49.494;11.768;2022-07-06T15:31:42;22.91;33.93
69543;SHT31;56762;49.494;11.768;2022-07-06T15:34:09;22.78;34.37
69543;SHT31;56762;49.494;11.768;2022-07-06T15:36:37;22.72;34.86
69543;SHT31;56762;49.494;11.768;2022-07-06T15:39:06;22.67;34.69